Briefing drone pour Pougues-les-eaux

Rechercher une autre localisation

Conditions de vol :


Nous sommes le : Samedi 02 juillet 2022
Il est 23:00 UTC (01:00 LT)

Lever de soleil : 03:31 UTC (05:31 LT)
Coucher de soleil : 20:12 UTC (22:12 LT)

Météo

L'essentiel des conditions de vol

VIGILANCE MÉTÉO FRANCE - Nièvre (58)
Pas de vigilances particulieres
CARTE TEMSI
CARTES DES FRONTS
METAR de LFQG
LFQG 011800Z AUTO VRB02KT CAVOK 20/08 Q1021

Date d'émission: 01/07/2022
Heure d'émission: 18:00 UTC
Vent: Variable 2 KT (4 km/h)
Visibilité horizontale: > 10 km
Plafond : Plafond et visibilité OK (CAVOK)
Température: 20 °C
Point de rosée: 8 °C
Humidité: 46%
Pression (QNH): 1021 hPa
Prévision 24h pour Nevers (7 km)
Vent : 28° pour 1 KT (2 km/h)
Temperature Maxi: 23 °C
Temperature Min: 23 °C
Humidité : 59%
Condition : Ciel dégagé



Warning: count(): Parameter must be an array or an object that implements Countable in /homepages/6/d509196549/htdocs/droneoxygene/briefing.php on line 743
WEBCAM POUR POUGUES-LES-EAUX

Réglementation

Voler en sécurité

CARTES AERONAUTIQUE 1/500.000
CARTES VAC (LFQG)
SUP AIP




Chargement des AIP...
NOTAM (POUGUES-LES-EAUX + Terrain à proximité / FIR )




Chargement des NOTAMS...
CONTACT PREFECTURE 58


Avertissement : Les données mises à disposition sont indicatives. Oxygène Drone ne pourra être tenu responsable de dégâts causés aux biens et aux personnes.